Time;durP1;ratioP1;P1;durP2;ratioP2;P2;SDS_P1;SDS_P2;PMS_P1;PMS_P2;Temp;Humidity;BMP_temperature;BMP_pressure;BME280_temperature;BME280_humidity;BME280_pressure;Samples;Min_cycle;Max_cycle;Signal;HPM_P1;HPM_P2
2023/07/25 00:02:18;;;;;;;5.75;3.03;;;;;;;12.78;100.00;100611.81;5069002;28;20035;-68
2023/07/25 00:04:43;;;;;;;7.15;3.33;;;;;;;12.71;100.00;100615.38;5069170;28;20125;-68
2023/07/25 00:07:09;;;;;;;11.27;4.30;;;;;;;12.69;100.00;100606.75;5069106;28;20070;-68
2023/07/25 00:09:34;;;;;;;10.30;3.58;;;;;;;12.70;100.00;100618.25;5068649;28;20037;-68
2023/07/25 00:11:59;;;;;;;10.52;4.70;;;;;;;12.69;100.00;100613.97;5068498;28;20032;-68
2023/07/25 00:14:25;;;;;;;9.15;4.18;;;;;;;12.69;100.00;100613.97;5068741;28;20043;-68
2023/07/25 00:16:50;;;;;;;7.25;3.67;;;;;;;12.70;100.00;100619.06;5068834;28;20384;-68
2023/07/25 00:19:15;;;;;;;10.55;4.15;;;;;;;12.72;100.00;100610.84;5067538;28;20491;-68
2023/07/25 00:21:41;;;;;;;8.70;4.05;;;;;;;12.72;100.00;100616.19;5068777;28;20360;-68
2023/07/25 00:24:06;;;;;;;6.63;3.38;;;;;;;12.70;100.00;100612.91;5068861;28;20051;-68
2023/07/25 00:26:31;;;;;;;7.65;3.90;;;;;;;12.67;100.00;100613.34;5068808;28;20036;-68
2023/07/25 00:28:57;;;;;;;8.68;3.70;;;;;;;12.70;100.00;100616.41;5068909;28;20032;-68
2023/07/25 00:31:22;;;;;;;7.57;3.38;;;;;;;12.71;100.00;100603.88;5068682;28;20052;-68
2023/07/25 00:33:47;;;;;;;7.50;4.28;;;;;;;12.63;100.00;100604.13;5068771;28;20070;-69
2023/07/25 00:36:13;;;;;;;7.95;3.58;;;;;;;12.62;100.00;100605.97;5068728;28;20065;-68
2023/07/25 00:38:38;;;;;;;5.80;3.47;;;;;;;12.59;100.00;100600.22;5068798;28;20483;-68
2023/07/25 00:41:03;;;;;;;9.18;4.00;;;;;;;12.51;100.00;100601.31;5069044;28;20036;-68
2023/07/25 00:43:29;;;;;;;10.40;4.95;;;;;;;12.42;100.00;100611.44;5068934;28;20060;-68
2023/07/25 00:45:54;;;;;;;9.15;4.25;;;;;;;12.42;100.00;100613.31;5068750;28;20063;-68
2023/07/25 00:48:20;;;;;;;7.18;3.97;;;;;;;12.40;100.00;100613.50;5068654;28;20032;-68
2023/07/25 00:50:45;;;;;;;7.55;3.97;;;;;;;12.41;100.00;100619.69;5068973;28;20028;-68
2023/07/25 00:53:13;;;;;;;7.00;3.60;;;;;;;12.38;100.00;100620.09;5068308;28;20039;-68
2023/07/25 00:55:38;;;;;;;7.57;4.75;;;;;;;12.41;100.00;100619.69;5068398;28;20040;-67
2023/07/25 00:58:04;;;;;;;12.43;4.57;;;;;;;12.43;100.00;100613.09;5067945;28;20044;-68
2023/07/25 01:00:29;;;;;;;6.18;3.90;;;;;;;12.42;100.00;100616.81;5068549;28;20053;-68
2023/07/25 01:02:54;;;;;;;9.13;3.67;;;;;;;12.39;100.00;100613.72;5068462;28;20063;-67
2023/07/25 01:05:21;;;;;;;9.80;4.07;;;;;;;12.38;100.00;100607.56;5068483;28;20079;-67
2023/07/25 01:07:47;;;;;;;8.50;3.65;;;;;;;12.40;100.00;100610.03;5068179;28;20082;-68
2023/07/25 01:10:14;;;;;;;9.27;3.75;;;;;;;12.39;100.00;100609.22;5068533;28;20399;-68
2023/07/25 01:12:39;;;;;;;7.60;4.30;;;;;;;12.30;100.00;100607.00;5068388;28;20060;-68
2023/07/25 01:15:05;;;;;;;7.55;3.95;;;;;;;12.32;100.00;100603.06;5068450;28;20384;-68
2023/07/25 01:17:31;;;;;;;8.95;3.95;;;;;;;12.37;100.00;100602.44;5068083;28;20033;-68
2023/07/25 01:19:57;;;;;;;8.85;5.07;;;;;;;12.37;100.00;100608.59;5067144;28;20082;-68
2023/07/25 01:22:25;;;;;;;7.90;4.65;;;;;;;12.35;100.00;100602.63;5070247;28;20067;-68
2023/07/25 01:24:54;;;;;;;10.18;5.18;;;;;;;12.32;100.00;100595.06;5072167;28;20466;-68
2023/07/25 01:27:19;;;;;;;6.40;3.50;;;;;;;12.27;100.00;100600.22;5072424;28;20021;-68
2023/07/25 01:29:44;;;;;;;9.20;4.90;;;;;;;12.22;100.00;100589.34;5071944;28;20102;-68
2023/07/25 01:32:11;;;;;;;8.27;4.80;;;;;;;12.18;100.00;100586.28;5072054;28;20028;-68
2023/07/25 01:34:36;;;;;;;8.52;4.45;;;;;;;12.18;100.00;100591.63;5071840;28;20024;-68
2023/07/25 01:37:02;;;;;;;11.60;5.32;;;;;;;12.18;100.00;100594.31;5071627;28;20086;-68
2023/07/25 01:39:28;;;;;;;8.07;3.97;;;;;;;12.17;100.00;100594.50;5071746;28;20032;-68
2023/07/25 01:41:53;;;;;;;10.98;4.32;;;;;;;12.16;100.00;100590.22;5071759;28;20460;-68
2023/07/25 01:44:19;;;;;;;9.48;4.55;;;;;;;12.15;100.00;100597.38;5071644;28;20043;-68
2023/07/25 01:46:44;;;;;;;10.05;4.72;;;;;;;12.15;100.00;100597.38;5071627;28;20235;-68
2023/07/25 01:49:10;;;;;;;14.07;4.88;;;;;;;12.18;100.00;100594.31;5071396;28;20032;-68
2023/07/25 01:51:36;;;;;;;9.65;5.47;;;;;;;12.18;100.00;100598.81;5071429;28;20120;-68
2023/07/25 01:54:02;;;;;;;9.60;4.85;;;;;;;12.17;100.00;100595.31;5071258;28;20112;-68
2023/07/25 01:56:27;;;;;;;9.27;4.93;;;;;;;12.14;100.00;100587.72;5071428;28;20032;-68
2023/07/25 01:58:52;;;;;;;7.55;4.68;;;;;;;12.06;100.00;100577.28;5071125;28;20064;-68
2023/07/25 02:01:17;;;;;;;8.20;3.70;;;;;;;12.02;100.00;100574.19;5071510;28;20039;-68
2023/07/25 02:03:43;;;;;;;7.90;4.00;;;;;;;11.91;100.00;100561.50;5071283;28;20115;-68
2023/07/25 02:06:09;;;;;;;6.10;3.58;;;;;;;12.00;100.00;100575.47;5071370;28;20107;-68
2023/07/25 02:08:34;;;;;;;10.30;4.40;;;;;;;11.96;100.00;100576.94;5071350;28;20029;-68
2023/07/25 02:11:00;;;;;;;8.32;4.05;;;;;;;11.96;100.00;100580.41;5071381;28;20487;-68
2023/07/25 02:13:26;;;;;;;8.48;3.97;;;;;;;11.91;100.00;100568.72;5071119;28;20151;-68
2023/07/25 02:15:51;;;;;;;8.00;3.90;;;;;;;11.90;100.00;100575.09;5071339;28;20127;-68
2023/07/25 02:18:16;;;;;;;11.13;5.20;;;;;;;11.88;100.00;100571.81;5071087;28;20437;-68
2023/07/25 02:20:42;;;;;;;10.00;4.47;;;;;;;11.90;100.00;100572.44;5069797;28;20387;-68
2023/07/25 02:23:07;;;;;;;11.00;4.43;;;;;;;11.89;100.00;100571.59;5070933;28;20123;-68
2023/07/25 02:25:32;;;;;;;8.25;4.25;;;;;;;11.90;100.00;100572.44;5071103;28;20043;-68
2023/07/25 02:27:58;;;;;;;9.60;4.57;;;;;;;11.91;100.00;100569.53;5069463;28;20033;-68
2023/07/25 02:30:23;;;;;;;11.63;5.32;;;;;;;11.88;100.00;100569.97;5070850;28;20032;-68
2023/07/25 02:32:49;;;;;;;11.98;6.53;;;;;;;11.87;100.00;100573.69;5070348;28;20024;-68
2023/07/25 02:35:14;;;;;;;11.65;4.93;;;;;;;11.84;100.00;100569.53;5070362;28;20387;-68
2023/07/25 02:37:40;;;;;;;13.10;5.78;;;;;;;11.84;100.00;100572.22;5069370;28;20033;-68
2023/07/25 02:40:06;;;;;;;10.90;6.00;;;;;;;11.85;100.00;100565.84;5069264;28;20035;-68
2023/07/25 02:42:32;;;;;;;10.10;4.80;;;;;;;11.83;100.00;100567.88;5070540;28;20554;-68
2023/07/25 02:44:57;;;;;;;11.95;5.07;;;;;;;11.86;100.00;100569.34;5070565;28;20033;-68
2023/07/25 02:47:23;;;;;;;8.38;4.07;;;;;;;11.84;100.00;100572.22;5070585;28;20032;-68
2023/07/25 02:49:48;;;;;;;11.63;5.15;;;;;;;11.83;100.00;100561.72;5070743;28;20051;-68
2023/07/25 02:52:13;;;;;;;12.07;4.90;;;;;;;11.85;100.00;100565.84;5070355;28;20391;-68
2023/07/25 02:54:39;;;;;;;11.07;5.35;;;;;;;11.85;100.00;100573.03;5070488;28;20387;-68
2023/07/25 02:57:05;;;;;;;10.70;4.80;;;;;;;11.83;100.00;100570.56;5068891;28;20037;-68
2023/07/25 02:59:30;;;;;;;8.30;4.80;;;;;;;11.81;100.00;100577.16;5069989;28;20055;-68
2023/07/25 03:01:55;;;;;;;8.85;4.75;;;;;;;11.79;100.00;100573.88;5070316;28;20048;-68
2023/07/25 03:04:21;;;;;;;9.32;4.57;;;;;;;11.73;100.00;100570.19;5070301;28;20037;-68
2023/07/25 03:06:46;;;;;;;7.47;4.53;;;;;;;11.72;100.00;100565.88;5070129;28;20028;-68
2023/07/25 03:09:11;;;;;;;9.02;4.88;;;;;;;11.67;100.00;100571.03;5070072;28;20052;-68
2023/07/25 03:11:37;;;;;;;10.20;4.93;;;;;;;11.65;100.00;100564.25;5070117;28;20407;-68
2023/07/25 03:14:03;;;;;;;12.18;5.38;;;;;;;11.65;100.00;100572.28;5069960;28;20075;-68
2023/07/25 03:16:28;;;;;;;15.75;5.55;;;;;;;11.61;100.00;100569.22;5068740;28;20032;-68
2023/07/25 03:18:54;;;;;;;9.43;5.05;;;;;;;11.58;100.00;100567.78;5070045;28;20040;-68
2023/07/25 03:21:19;;;;;;;11.68;5.53;;;;;;;11.57;100.00;100566.13;5069791;28;20448;-68
2023/07/25 03:23:44;;;;;;;10.75;5.07;;;;;;;11.55;100.00;100564.69;5069730;28;20028;-68
2023/07/25 03:26:10;;;;;;;9.25;4.90;;;;;;;11.56;100.00;100564.50;5069863;28;20043;-68
2023/07/25 03:28:35;;;;;;;7.78;4.40;;;;;;;11.51;100.00;100566.97;5069499;28;20035;-68
2023/07/25 03:31:01;;;;;;;11.43;5.90;;;;;;;11.53;100.00;100570.28;5069750;28;20115;-68
2023/07/25 03:33:27;;;;;;;7.65;4.05;;;;;;;11.51;100.00;100560.81;5069711;28;20081;-68
2023/07/25 03:35:53;;;;;;;9.82;4.70;;;;;;;11.48;100.00;100561.25;5069457;28;20067;-68
2023/07/25 03:38:19;;;;;;;7.63;3.60;;;;;;;11.44;100.00;100565.34;5068422;28;20043;-68
2023/07/25 03:40:44;;;;;;;9.32;4.35;;;;;;;11.40;100.00;100565.78;5069356;28;20448;-68
2023/07/25 03:43:09;;;;;;;8.77;4.07;;;;;;;11.41;100.00;100566.59;5067977;28;20035;-68
2023/07/25 03:45:35;;;;;;;13.38;5.68;;;;;;;11.42;100.00;100557.53;5067808;28;20029;-68
2023/07/25 03:48:00;;;;;;;13.75;5.35;;;;;;;11.48;100.00;100556.72;5069510;28;20070;-68
2023/07/25 03:50:26;;;;;;;10.07;5.78;;;;;;;11.45;100.00;100557.16;5069466;28;20032;-68
2023/07/25 03:52:51;;;;;;;13.43;6.13;;;;;;;11.43;100.00;100561.06;5069023;28;20554;-68
2023/07/25 03:55:16;;;;;;;7.82;4.68;;;;;;;11.36;100.00;100558.38;5068440;28;20032;-68
2023/07/25 03:57:42;;;;;;;10.13;4.75;;;;;;;11.36;100.00;100564.53;5068059;28;20036;-69
2023/07/25 04:00:07;;;;;;;10.73;5.07;;;;;;;11.38;100.00;100561.69;5068317;28;20147;-68
2023/07/25 04:02:33;;;;;;;11.30;4.72;;;;;;;11.39;100.00;100566.78;5068682;28;20068;-68
2023/07/25 04:04:58;;;;;;;9.65;4.90;;;;;;;11.41;100.00;100563.91;5068717;28;20032;-68
2023/07/25 04:07:23;;;;;;;11.35;5.75;;;;;;;11.45;100.00;100564.31;5068993;28;20036;-68
2023/07/25 04:09:49;;;;;;;12.80;5.28;;;;;;;11.47;100.00;100556.91;5069020;28;20028;-68
2023/07/25 04:12:14;;;;;;;11.55;5.47;;;;;;;11.48;100.00;100561.25;5069419;28;20143;-68
2023/07/25 04:14:40;;;;;;;11.82;5.00;;;;;;;11.52;100.00;100559.78;5068949;28;20032;-68
2023/07/25 04:17:06;;;;;;;12.27;4.93;;;;;;;11.51;100.00;100566.97;5068985;28;20020;-68
2023/07/25 04:19:32;;;;;;;7.85;4.22;;;;;;;11.53;100.00;100559.59;5051052;28;20024;-68
2023/07/25 04:21:57;;;;;;;14.35;5.60;;;;;;;11.57;100.00;100559.97;5068989;28;20033;-68
2023/07/25 04:24:22;;;;;;;8.38;5.15;;;;;;;11.58;100.00;100556.25;5068808;28;20044;-68
2023/07/25 04:26:48;;;;;;;11.02;4.90;;;;;;;11.60;100.00;100560.38;5068723;28;20383;-68
2023/07/25 04:29:13;;;;;;;11.10;5.95;;;;;;;11.60;100.00;100557.69;5068907;28;20032;-68
2023/07/25 04:31:38;;;;;;;8.13;4.65;;;;;;;11.63;100.00;100567.13;5068840;28;20070;-68
2023/07/25 04:34:04;;;;;;;13.50;5.15;;;;;;;11.68;100.00;100571.84;5068853;28;20039;-68
2023/07/25 04:36:29;;;;;;;9.45;4.68;;;;;;;11.72;100.00;100567.75;5068977;28;20036;-68
2023/07/25 04:38:56;;;;;;;11.23;5.78;;;;;;;11.72;100.00;100571.22;5068704;28;20235;-68
2023/07/25 04:41:22;;;;;;;11.23;5.75;;;;;;;11.78;100.00;100565.03;5068655;28;20032;-68
2023/07/25 04:43:47;;;;;;;12.02;5.93;;;;;;;11.78;100.00;100569.56;5068661;28;20093;-68
2023/07/25 04:46:12;;;;;;;10.52;4.78;;;;;;;11.82;100.00;100578.81;5067399;28;20031;-68
2023/07/25 04:48:38;;;;;;;13.32;5.85;;;;;;;11.83;100.00;100580.44;5068538;28;20120;-68
2023/07/25 04:51:03;;;;;;;11.82;5.22;;;;;;;11.86;100.00;100574.69;5067383;28;20109;-68
2023/07/25 04:53:28;;;;;;;12.18;4.97;;;;;;;11.87;100.00;100571.00;5068526;28;20096;-68
2023/07/25 04:55:54;;;;;;;13.05;5.60;;;;;;;11.88;100.00;100574.50;5068575;28;20044;-68
2023/07/25 04:58:19;;;;;;;12.82;5.72;;;;;;;11.90;100.00;100583.13;5072060;28;20495;-68
2023/07/25 05:00:44;;;;;;;13.27;5.97;;;;;;;11.89;100.00;100581.47;5072642;28;20166;-68
2023/07/25 05:03:10;;;;;;;12.20;5.00;;;;;;;11.84;100.00;100574.91;5072354;28;20101;-68
2023/07/25 05:05:35;;;;;;;9.95;4.97;;;;;;;11.93;100.00;100575.50;5072564;28;20388;-68
2023/07/25 05:08:01;;;;;;;11.68;5.35;;;;;;;12.02;100.00;100573.38;5072253;28;20047;-68
2023/07/25 05:10:26;;;;;;;9.85;5.50;;;;;;;12.14;100.00;100573.56;5072406;28;20028;-68
2023/07/25 05:12:51;;;;;;;12.52;5.03;;;;;;;12.30;100.00;100567.69;5072142;28;20090;-68
2023/07/25 05:15:17;;;;;;;12.82;5.07;;;;;;;12.63;100.00;100564.81;5072194;28;20495;-68
2023/07/25 05:17:42;;;;;;;13.88;5.35;;;;;;;13.22;100.00;100569.88;5072030;28;20369;-69
2023/07/25 05:20:08;;;;;;;12.73;5.25;;;;;;;13.64;100.00;100567.41;5072083;28;20458;-68
2023/07/25 05:22:33;;;;;;;10.05;5.25;;;;;;;13.71;100.00;100568.16;5071989;28;20106;-68
2023/07/25 05:24:59;;;;;;;13.05;5.72;;;;;;;13.66;100.00;100568.81;5072009;28;20048;-68
2023/07/25 05:27:24;;;;;;;14.30;8.05;;;;;;;13.58;100.00;100571.78;5072094;28;20028;-69
2023/07/25 05:29:50;;;;;;;13.55;8.65;;;;;;;13.58;100.00;100569.91;5071999;28;20078;-68
2023/07/25 05:32:15;;;;;;;16.58;7.93;;;;;;;13.62;100.00;100572.97;5070668;28;20036;-68
2023/07/25 05:34:40;;;;;;;13.95;7.38;;;;;;;13.71;100.00;100568.16;5072026;28;20387;-68
2023/07/25 05:37:06;;;;;;;12.73;6.90;;;;;;;13.74;100.00;100573.88;5071870;28;20032;-68
2023/07/25 05:39:31;;;;;;;16.15;7.72;;;;;;;13.80;100.00;100569.47;5071806;28;20021;-68
2023/07/25 05:41:56;;;;;;;15.77;7.88;;;;;;;13.86;100.00;100567.75;5070078;28;20534;-68
2023/07/25 05:44:22;;;;;;;11.77;7.13;;;;;;;13.95;100.00;100577.13;5071960;28;20036;-68
2023/07/25 05:46:47;;;;;;;15.25;5.63;;;;;;;13.99;100.00;100576.47;5071607;28;20032;-69
2023/07/25 05:49:13;;;;;;;14.35;5.65;;;;;;;14.03;100.00;100577.63;5071159;28;20094;-69
2023/07/25 05:51:38;;;;;;;10.50;5.18;;;;;;;14.10;100.00;100580.22;5070099;28;20060;-69
2023/07/25 05:54:03;;;;;;;12.55;6.38;;;;;;;14.16;100.00;100586.56;5071361;28;20376;-69
2023/07/25 05:56:29;;;;;;;12.73;5.85;;;;;;;14.14;100.00;100594.81;5071399;28;20056;-68
2023/07/25 05:58:54;;;;;;;14.50;5.95;;;;;;;14.11;100.00;100595.28;5071335;28;20045;-68
2023/07/25 06:01:20;;;;;;;13.23;5.53;;;;;;;14.10;100.00;100592.81;5071280;28;20052;-68
2023/07/25 06:03:45;;;;;;;18.40;6.43;;;;;;;14.09;100.00;100594.66;5071136;28;20078;-68
2023/07/25 06:06:10;;;;;;;11.88;4.47;;;;;;;14.10;100.00;100600.88;5071150;28;20028;-68
2023/07/25 06:08:36;;;;;;;8.13;4.25;;;;;;;14.12;100.00;100591.56;5069683;28;20035;-69
2023/07/25 06:11:01;;;;;;;11.65;5.18;;;;;;;14.12;100.00;100596.94;5070989;28;20055;-68
2023/07/25 06:13:27;;;;;;;11.55;4.70;;;;;;;14.18;100.00;100595.19;5071078;28;20471;-68
2023/07/25 06:15:52;;;;;;;8.80;5.28;;;;;;;14.17;100.00;100596.22;5071112;28;20032;-69
2023/07/25 06:18:18;;;;;;;12.05;4.30;;;;;;;14.21;100.00;100602.78;5070945;28;20039;-68
2023/07/25 06:20:46;;;;;;;12.73;3.45;;;;;;;14.19;100.00;100594.13;5071066;28;20033;-68
2023/07/25 06:23:11;;;;;;;9.32;4.18;;;;;;;14.19;100.00;100596.81;5070784;28;20029;-68
2023/07/25 06:25:36;;;;;;;6.47;4.32;;;;;;;14.16;100.00;100591.91;5070752;28;20373;-69
2023/07/25 06:28:04;;;;;;;11.52;4.40;;;;;;;14.20;100.00;100593.06;5070939;28;20040;-68
2023/07/25 06:30:30;;;;;;;12.65;5.63;;;;;;;14.26;100.00;100594.88;5071222;28;20515;-68
2023/07/25 06:32:55;;;;;;;9.25;4.05;;;;;;;14.27;100.00;100590.31;5070404;28;20174;-68
2023/07/25 06:35:22;;;;;;;9.27;4.03;;;;;;;14.29;100.00;100594.41;5069472;28;20039;-69
2023/07/25 06:37:48;;;;;;;10.82;4.32;;;;;;;14.30;100.00;100603.28;5070658;28;20036;-68
2023/07/25 06:40:14;;;;;;;10.25;4.75;;;;;;;14.31;100.00;100600.38;5070442;28;20062;-68
2023/07/25 06:42:39;;;;;;;10.43;5.70;;;;;;;14.36;100.00;100603.19;5070538;28;20371;-68
2023/07/25 06:45:05;;;;;;;11.35;5.28;;;;;;;14.41;100.00;100610.56;5070551;28;20044;-69
2023/07/25 06:47:31;;;;;;;9.52;4.78;;;;;;;14.44;100.00;100616.28;5070567;28;20036;-68
2023/07/25 06:49:57;;;;;;;10.25;4.43;;;;;;;14.47;100.00;100612.34;5070464;28;20035;-68
2023/07/25 06:52:23;;;;;;;12.68;6.60;;;;;;;14.47;100.00;100617.69;5070259;28;20792;-68
2023/07/25 06:54:48;;;;;;;10.60;5.07;;;;;;;14.40;100.00;100608.91;5070351;28;20036;-67
2023/07/25 06:57:14;;;;;;;9.52;4.80;;;;;;;14.46;100.00;100616.03;5070288;28;20052;-68
2023/07/25 06:59:39;;;;;;;8.68;4.28;;;;;;;14.45;100.00;100611.75;5070158;28;20606;-68
2023/07/25 07:02:05;;;;;;;16.33;5.43;;;;;;;14.48;100.00;100624.69;5070222;28;20032;-68
2023/07/25 07:04:30;;;;;;;10.60;4.50;;;;;;;14.55;100.00;100613.91;5070029;28;20115;-68
2023/07/25 07:06:56;;;;;;;13.65;5.28;;;;;;;14.65;100.00;100604.25;5070253;28;20540;-67
2023/07/25 07:09:21;;;;;;;11.90;5.65;;;;;;;14.76;100.00;100612.56;5068625;28;20032;-68
2023/07/25 07:11:46;;;;;;;9.02;4.65;;;;;;;14.90;100.00;100612.09;5070167;28;20021;-67
2023/07/25 07:14:12;;;;;;;9.90;4.40;;;;;;;15.05;100.00;100622.41;5070177;28;20170;-68
2023/07/25 07:16:37;;;;;;;9.10;4.53;;;;;;;15.11;100.00;100616.09;5069881;28;20495;-67
2023/07/25 07:19:03;;;;;;;12.57;5.18;;;;;;;15.09;100.00;100620.06;5069457;28;20416;-67
2023/07/25 07:21:29;;;;;;;15.52;4.53;;;;;;;15.02;100.00;100622.06;5070222;28;20077;-68
2023/07/25 07:23:54;;;;;;;12.45;4.57;;;;;;;14.96;100.00;100623.81;5068289;28;20044;-70
2023/07/25 07:26:20;;;;;;;9.73;3.85;;;;;;;14.98;100.00;100632.44;5069375;28;20039;-68
2023/07/25 07:28:45;;;;;;;13.95;5.53;;;;;;;15.03;100.00;100631.75;5069306;28;20447;-68
2023/07/25 07:31:12;;;;;;;9.45;5.63;;;;;;;15.14;100.00;100622.88;5068300;28;20032;-67
2023/07/25 07:33:38;;;;;;;9.38;3.42;;;;;;;15.42;100.00;100627.56;5069322;28;20487;-68
2023/07/25 07:36:03;;;;;;;10.50;3.70;;;;;;;15.75;100.00;100626.19;5069342;28;20586;-68
2023/07/25 07:38:29;;;;;;;9.60;4.65;;;;;;;15.81;100.00;100627.09;5069340;28;20029;-67
2023/07/25 07:40:54;;;;;;;5.93;3.00;;;;;;;15.65;100.00;100637.50;5068446;28;20064;-69
2023/07/25 07:43:19;;;;;;;5.53;3.03;;;;;;;15.48;100.00;100633.88;5068676;28;20154;-67
2023/07/25 07:45:45;;;;;;;7.72;2.60;;;;;;;15.37;100.00;100640.06;5069083;28;20025;-71
2023/07/25 07:48:11;;;;;;;8.75;3.53;;;;;;;15.36;100.00;100636.56;5069025;28;20052;-70
2023/07/25 07:50:36;;;;;;;6.85;3.20;;;;;;;15.48;100.00;100636.56;5068712;28;20028;-69
2023/07/25 07:53:02;;;;;;;9.00;3.05;;;;;;;15.68;100.00;100641.59;5069106;28;20106;-66
2023/07/25 07:55:27;;;;;;;10.85;4.35;;;;;;;15.74;100.00;100638.78;5068852;28;20136;-70
2023/07/25 07:57:52;;;;;;;10.80;2.35;;;;;;;15.70;100.00;100648.41;5068909;28;20448;-70
2023/07/25 08:00:19;;;;;;;5.75;2.03;;;;;;;15.51;100.00;100649.53;5068661;28;20495;-69
2023/07/25 08:02:45;;;;;;;8.07;3.17;;;;;;;15.37;100.00;100643.56;5068808;28;20036;-69
2023/07/25 08:05:11;;;;;;;4.20;1.65;;;;;;;15.43;100.00;100653.41;5066605;28;20111;-69
2023/07/25 08:07:37;;;;;;;6.20;2.53;;;;;;;15.52;100.00;100649.31;5068751;28;20028;-69
2023/07/25 08:10:03;;;;;;;6.22;2.17;;;;;;;15.67;98.72;100664.16;5069198;28;20035;-69
2023/07/25 08:12:29;;;;;;;3.97;2.00;;;;;;;15.70;97.09;100666.41;5068983;28;20433;-69
2023/07/25 08:14:54;;;;;;;7.72;2.08;;;;;;;15.77;98.97;100659.00;5068944;28;20383;-69
2023/07/25 08:17:20;;;;;;;6.50;2.63;;;;;;;15.80;99.50;100660.41;5068900;28;20063;-69
2023/07/25 08:19:45;;;;;;;3.60;2.17;;;;;;;15.80;99.37;100660.41;5069044;28;20028;-69
2023/07/25 08:22:11;;;;;;;7.25;2.65;;;;;;;15.70;98.33;100661.03;5068711;28;20032;-69
2023/07/25 08:24:38;;;;;;;12.02;3.45;;;;;;;15.67;98.84;100669.53;5067525;28;20034;-69
2023/07/25 08:27:03;;;;;;;5.60;2.47;;;;;;;15.59;98.73;100664.50;5067790;28;20051;-69
2023/07/25 08:29:29;;;;;;;4.78;1.92;;;;;;;15.46;99.48;100673.63;5066248;28;20071;-69
2023/07/25 08:31:54;;;;;;;4.80;1.58;;;;;;;16.09;99.11;100672.09;5066844;28;20036;-69
2023/07/25 08:34:20;;;;;;;5.28;2.05;;;;;;;18.31;87.87;100677.06;5068533;28;20066;-68
2023/07/25 08:36:46;;;;;;;7.32;2.10;;;;;;;20.32;76.81;100674.81;5068413;28;20415;-68
2023/07/25 08:39:11;;;;;;;5.30;2.45;;;;;;;21.51;72.58;100671.19;5068872;28;20132;-69
2023/07/25 08:41:42;;;;;;;3.67;1.63;;;;;;;22.86;64.46;100680.13;5068673;28;20059;-70
2023/07/25 08:44:12;;;;;;;7.78;1.83;;;;;;;23.38;61.87;100675.09;5068633;28;20036;-69
2023/07/25 08:46:41;;;;;;;7.50;2.05;;;;;;;23.14;60.59;100675.06;5067826;28;20445;-70
2023/07/25 08:49:13;;;;;;;5.30;1.63;;;;;;;22.75;61.69;100665.78;5068555;28;20539;-70
2023/07/25 08:51:41;;;;;;;4.07;1.52;;;;;;;22.03;63.95;100669.94;5068403;28;20035;-70
2023/07/25 08:54:15;;;;;;;5.70;1.73;;;;;;;21.09;63.94;100685.81;5068408;28;20093;-70
2023/07/25 08:56:41;;;;;;;3.97;1.55;;;;;;;20.19;67.79;100683.44;5068249;28;20117;-70
2023/07/25 08:59:08;;;;;;;5.25;1.70;;;;;;;19.69;70.11;100675.63;5068369;28;20060;-70
2023/07/25 09:01:33;;;;;;;4.03;1.52;;;;;;;19.29;73.33;100681.53;5068570;28;20032;-70
2023/07/25 09:04:01;;;;;;;3.60;1.70;;;;;;;18.88;75.20;100678.50;5068363;28;20036;-70
2023/07/25 09:06:28;;;;;;;2.78;1.27;;;;;;;18.61;75.25;100686.56;5068474;28;20493;-70
2023/07/25 09:08:53;;;;;;;4.70;1.50;;;;;;;18.26;79.20;100692.38;5066857;28;20059;-70
2023/07/25 09:11:20;;;;;;;1.70;1.60;;;;;;;17.94;78.91;100683.06;5067403;28;20063;-70
2023/07/25 09:13:47;;;;;;;5.32;2.05;;;;;;;17.72;80.27;100687.59;5068066;28;20029;-70
2023/07/25 09:16:12;;;;;;;4.03;1.48;;;;;;;17.60;83.92;100693.09;5068336;28;20036;-70
2023/07/25 09:18:38;;;;;;;7.32;1.80;;;;;;;17.63;83.24;100698.00;5066841;28;20025;-69
2023/07/25 09:21:03;;;;;;;4.85;1.73;;;;;;;17.52;81.90;100694.31;5068329;28;20119;-70
2023/07/25 09:23:29;;;;;;;5.75;1.45;;;;;;;17.44;81.11;100692.03;5068313;28;20043;-69
2023/07/25 09:26:06;;;;;;;2.25;1.67;;;;;;;17.41;81.62;100695.22;5067204;28;20402;-69
2023/07/25 09:28:32;;;;;;;2.78;1.98;;;;;;;17.37;80.94;100694.09;5068354;28;20017;-70
2023/07/25 09:31:02;;;;;;;3.13;1.55;;;;;;;17.63;81.30;100684.53;5068132;28;20098;-70
2023/07/25 09:33:28;;;;;;;2.95;1.10;;;;;;;17.84;79.42;100690.22;5068217;28;20464;-70
2023/07/25 09:35:54;;;;;;;2.35;1.50;;;;;;;17.71;75.90;100689.50;5066787;28;20641;-70
2023/07/25 09:38:20;;;;;;;3.65;2.17;;;;;;;17.67;80.72;100696.44;5068057;28;20107;-70
2023/07/25 09:40:47;;;;;;;2.78;1.58;;;;;;;17.65;75.59;100695.03;5068251;28;20162;-70
2023/07/25 09:43:25;;;;;;;9.35;1.98;;;;;;;17.73;79.87;100695.44;5069755;28;20024;-70
2023/07/25 09:45:52;;;;;;;6.93;1.77;;;;;;;17.80;79.31;100683.69;5070497;28;20656;-70
2023/07/25 09:48:18;;;;;;;3.40;1.67;;;;;;;17.99;80.27;100695.81;5070193;28;20024;-70
2023/07/25 09:50:46;;;;;;;4.57;2.38;;;;;;;18.08;76.38;100697.03;5071632;28;20218;-70
2023/07/25 09:53:14;;;;;;;7.32;1.40;;;;;;;18.01;77.14;100704.50;5070243;28;20036;-70
2023/07/25 09:55:40;;;;;;;4.72;2.28;;;;;;;17.86;80.43;100691.59;5071620;28;20469;-70
2023/07/25 09:58:05;;;;;;;4.00;1.77;;;;;;;17.87;79.19;100690.56;5071411;28;20165;-70
2023/07/25 10:00:31;;;;;;;7.85;3.10;;;;;;;18.10;77.25;100694.91;5071235;28;20075;-70
2023/07/25 10:02:58;;;;;;;4.90;1.45;;;;;;;18.25;76.41;100696.97;5071356;28;20016;-70
2023/07/25 10:05:25;;;;;;;3.72;1.73;;;;;;;18.28;75.88;100693.75;5071281;28;20036;-70
2023/07/25 10:07:52;;;;;;;6.65;2.65;;;;;;;18.39;74.00;100700.09;5071338;28;20033;-70
2023/07/25 10:10:18;;;;;;;4.70;1.60;;;;;;;18.36;72.45;100700.59;5071351;28;20486;-70
2023/07/25 10:12:43;;;;;;;4.85;1.60;;;;;;;18.36;70.11;100712.22;5071226;28;20134;-70
2023/07/25 10:15:11;;;;;;;4.90;2.00;;;;;;;18.41;68.74;100695.25;5071143;28;20028;-70
2023/07/25 10:17:36;;;;;;;9.48;2.13;;;;;;;18.51;68.52;100691.88;5070932;28;20107;-70
2023/07/25 10:20:05;;;;;;;2.08;1.38;;;;;;;18.67;70.85;100700.94;5069736;28;20558;-70
2023/07/25 10:22:43;;;;;;;4.53;1.70;;;;;;;18.65;69.26;100695.78;5069805;28;20036;-70
2023/07/25 10:25:18;;;;;;;3.67;1.23;;;;;;;18.69;67.62;100698.81;5069984;28;20541;-67
2023/07/25 10:27:44;;;;;;;2.10;1.25;;;;;;;18.54;68.69;100696.75;5070606;28;20031;-68
2023/07/25 10:30:39;;;;;;;4.45;2.17;;;;;;;18.91;72.38;100694.19;5070585;28;20399;-69
2023/07/25 10:33:06;;;;;;;1.85;1.25;;;;;;;19.21;70.19;100692.84;5070356;28;20400;-70
2023/07/25 10:35:45;;;;;;;9.10;2.58;;;;;;;19.40;70.72;100685.94;5070412;28;20431;-67
2023/07/25 10:38:12;;;;;;;2.28;1.55;;;;;;;19.29;68.00;100700.47;5069938;28;20044;-68
2023/07/25 10:40:55;;;;;;;4.70;1.30;;;;;;;19.14;69.62;100701.16;5070423;28;20123;-69
2023/07/25 10:43:22;;;;;;;4.45;2.25;;;;;;;18.81;67.97;100697.63;5070114;28;20032;-68
2023/07/25 10:45:50;;;;;;;2.83;1.40;;;;;;;18.62;69.19;100702.50;5070388;28;20032;-70
2023/07/25 10:48:42;;;;;;;6.18;1.17;;;;;;;18.68;72.11;100699.88;5070591;28;20012;-68
2023/07/25 10:51:07;;;;;;;5.40;1.77;;;;;;;18.65;68.19;100700.38;5070391;28;20468;-69
2023/07/25 10:53:33;;;;;;;5.50;1.52;;;;;;;18.74;68.40;100713.19;5070123;28;20035;-68
2023/07/25 10:56:05;;;;;;;5.72;1.27;;;;;;;18.81;67.72;100713.84;5069633;28;20052;-69
2023/07/25 10:58:30;;;;;;;;;;;;;;;18.98;68.34;100702.09;5070456;28;20036;-69
2023/07/25 11:00:57;;;;;;;3.00;1.42;;;;;;;18.77;67.85;100699.19;5070237;28;19920;-69
2023/07/25 11:03:27;;;;;;;1.67;0.90;;;;;;;18.54;63.76;100702.16;5070235;28;20037;-70
2023/07/25 11:06:12;;;;;;;1.50;1.20;;;;;;;18.54;66.34;100694.06;5070148;28;20028;-69
2023/07/25 11:08:39;;;;;;;2.35;1.40;;;;;;;18.47;66.10;100690.72;5070372;28;20044;-69
2023/07/25 11:11:10;;;;;;;2.85;1.00;;;;;;;18.65;68.49;100686.88;5069995;28;20147;-69
2023/07/25 11:13:41;;;;;;;2.75;1.70;;;;;;;18.93;68.63;100677.72;5070173;28;20034;-70